createdAt,value
2019-05-22T00:00:31.735Z,75.30
2019-05-22T00:03:02.238Z,75.40
2019-05-22T00:05:34.990Z,76.50
2019-05-22T00:08:05.339Z,75.20
2019-05-22T00:10:34.844Z,76.10
2019-05-22T00:13:06.163Z,76.00
2019-05-22T00:15:38.609Z,77.00
2019-05-22T00:18:07.856Z,76.90
2019-05-22T00:20:37.575Z,76.30
2019-05-22T00:23:11.355Z,77.20
2019-05-22T00:25:41.080Z,76.60
2019-05-22T00:28:10.622Z,76.40
2019-05-22T00:30:41.362Z,76.50
2019-05-22T00:33:11.458Z,76.90
2019-05-22T00:35:42.394Z,76.70
2019-05-22T00:38:12.007Z,76.10
2019-05-22T00:40:45.076Z,76.80
2019-05-22T00:43:17.265Z,76.70
2019-05-22T00:45:49.376Z,76.90
2019-05-22T00:48:21.633Z,77.50
2019-05-22T00:50:57.595Z,77.80
2019-05-22T00:53:44.803Z,77.80
2019-05-22T00:56:16.994Z,77.20
2019-05-22T00:59:07.705Z,78.20
2019-05-22T01:01:39.912Z,78.20
2019-05-22T01:04:10.383Z,77.90
2019-05-22T01:06:39.802Z,78.00
2019-05-22T01:09:10.783Z,78.00
2019-05-22T01:11:41.209Z,77.30
2019-05-22T01:14:10.140Z,76.80
2019-05-22T01:16:40.202Z,76.90
2019-05-22T01:19:10.956Z,76.50
2019-05-22T01:21:40.403Z,76.20
2019-05-22T01:24:11.087Z,76.50
2019-05-22T01:26:41.941Z,77.00
2019-05-22T01:29:11.674Z,77.10
2019-05-22T01:31:42.198Z,76.80
2019-05-22T01:34:12.888Z,76.30
2019-05-22T01:36:49.722Z,76.10
2019-05-22T01:39:25.875Z,75.80
2019-05-22T01:41:57.235Z,76.60
2019-05-22T01:44:27.703Z,76.50
2019-05-22T01:46:58.433Z,76.90
2019-05-22T01:49:28.238Z,75.40
2019-05-22T01:51:57.898Z,75.20
2019-05-22T01:54:27.875Z,74.80
2019-05-22T01:57:05.428Z,74.70
2019-05-22T01:59:52.812Z,75.10
2019-05-22T02:02:24.855Z,75.00
2019-05-22T02:04:54.557Z,75.00
2019-05-22T02:07:24.483Z,75.30
2019-05-22T02:09:55.196Z,74.70
2019-05-22T02:12:36.512Z,75.20
2019-05-22T02:15:07.595Z,75.10
2019-05-22T02:17:37.345Z,75.30
2019-05-22T02:20:08.887Z,75.40
2019-05-22T02:22:38.874Z,75.30
2019-05-22T02:25:08.450Z,75.00
2019-05-22T02:27:38.882Z,75.20
2019-05-22T02:30:09.540Z,74.60
2019-05-22T02:32:39.106Z,75.50
2019-05-22T02:35:09.435Z,75.70
2019-05-22T02:37:39.383Z,75.70
2019-05-22T02:40:20.267Z,75.10
2019-05-22T02:42:50.939Z,74.40
2019-05-22T02:45:21.914Z,74.20
2019-05-22T02:47:50.906Z,74.80
2019-05-22T02:50:20.270Z,75.00
2019-05-22T02:52:50.771Z,74.40
2019-05-22T02:55:20.027Z,74.60
2019-05-22T02:57:50.029Z,75.10
2019-05-22T03:00:19.881Z,75.30
2019-05-22T03:02:57.554Z,74.70
2019-05-22T03:05:26.902Z,75.60
2019-05-22T03:07:55.898Z,75.30
2019-05-22T03:10:25.477Z,74.90
2019-05-22T03:12:54.455Z,74.40
2019-05-22T03:15:24.618Z,75.10
2019-05-22T03:17:56.466Z,75.10
2019-05-22T03:20:26.568Z,75.00
2019-05-22T03:22:58.958Z,74.40
2019-05-22T03:25:30.182Z,74.20
2019-05-22T03:27:59.939Z,74.30
2019-05-22T03:30:46.555Z,73.80
2019-05-22T03:33:11.781Z,74.00
2019-05-22T03:35:47.470Z,74.40
2019-05-22T03:38:19.149Z,74.30
2019-05-22T03:40:51.090Z,74.50
2019-05-22T03:43:28.273Z,74.80
2019-05-22T03:45:59.194Z,73.90
2019-05-22T03:48:30.974Z,74.20
2019-05-22T03:51:08.874Z,74.40
2019-05-22T03:53:38.417Z,75.10
2019-05-22T03:56:07.275Z,75.70
2019-05-22T03:58:36.357Z,75.00
2019-05-22T04:01:06.726Z,75.10
2019-05-22T04:03:36.130Z,75.60
2019-05-22T04:06:06.520Z,75.20
2019-05-22T04:08:35.486Z,75.20
2019-05-22T04:11:05.665Z,75.50
2019-05-22T04:13:36.147Z,74.90
2019-05-22T04:16:06.791Z,75.60
2019-05-22T04:18:36.147Z,75.60
2019-05-22T04:21:05.382Z,75.60
2019-05-22T04:23:34.535Z,75.10
2019-05-22T04:26:05.292Z,75.10
2019-05-22T04:28:34.932Z,74.00
2019-05-22T04:31:14.791Z,74.10
2019-05-22T04:33:44.025Z,74.90
2019-05-22T04:36:13.879Z,74.50
2019-05-22T04:38:43.077Z,74.40
2019-05-22T04:41:11.851Z,74.30
2019-05-22T04:43:41.138Z,74.60
2019-05-22T04:46:11.449Z,73.50
2019-05-22T04:48:44.951Z,73.30
2019-05-22T04:51:26.611Z,72.40
2019-05-22T04:53:57.562Z,72.50
2019-05-22T04:56:27.731Z,71.60
2019-05-22T04:58:58.811Z,70.50
2019-05-22T05:01:28.070Z,68.20
2019-05-22T05:03:57.577Z,65.70
2019-05-22T05:06:26.673Z,62.40
2019-05-22T05:08:56.631Z,58.40
2019-05-22T05:11:25.829Z,55.20
2019-05-22T05:13:55.182Z,53.40
2019-05-22T05:16:24.099Z,51.30
2019-05-22T05:19:12.969Z,50.80
2019-05-22T05:21:41.770Z,50.10
2019-05-22T05:24:11.417Z,49.20
2019-05-22T05:26:40.410Z,49.50
2019-05-22T05:29:12.508Z,48.90
2019-05-22T05:31:42.559Z,48.90
2019-05-22T05:34:23.740Z,48.40
2019-05-22T05:36:53.333Z,47.40
2019-05-22T05:39:37.935Z,46.50
2019-05-22T05:42:06.809Z,45.60
2019-05-22T05:44:36.275Z,45.30
2019-05-22T05:47:06.947Z,44.60
2019-05-22T05:49:35.805Z,43.10
2019-05-22T05:52:06.383Z,41.20
2019-05-22T05:54:35.691Z,40.20
2019-05-22T05:57:36.952Z,38.00
2019-05-22T06:00:12.148Z,36.60
2019-05-22T06:02:55.520Z,34.80
2019-05-22T06:05:12.348Z,35.00
2019-05-22T06:07:41.430Z,35.80
2019-05-22T06:10:29.580Z,37.20
2019-05-22T06:12:59.210Z,38.00
2019-05-22T06:15:47.965Z,38.30
2019-05-22T06:18:31.984Z,38.30
2019-05-22T06:21:04.228Z,37.40
2019-05-22T06:23:42.543Z,37.00
2019-05-22T06:26:14.415Z,37.50
2019-05-22T06:28:44.211Z,34.90
2019-05-22T06:31:24.500Z,35.20
2019-05-22T06:33:53.983Z,35.40
2019-05-22T06:36:23.254Z,35.20
2019-05-22T06:38:59.621Z,34.90
2019-05-22T06:41:32.542Z,33.90
2019-05-22T06:44:23.732Z,32.50
2019-05-22T06:46:52.533Z,31.60
2019-05-22T06:49:36.820Z,32.60
2019-05-22T06:52:09.264Z,30.90
2019-05-22T06:54:38.951Z,30.80
2019-05-22T06:57:10.671Z,31.70
2019-05-22T06:59:39.961Z,31.50
2019-05-22T07:02:10.315Z,33.00
2019-05-22T07:04:39.909Z,33.20
2019-05-22T07:07:11.665Z,32.50
2019-05-22T07:09:41.320Z,32.30
2019-05-22T07:12:10.987Z,32.40
2019-05-22T07:14:45.674Z,31.90
2019-05-22T07:17:17.016Z,30.50
2019-05-22T07:19:47.266Z,31.40
2019-05-22T07:22:16.525Z,30.70
2019-05-22T07:24:45.927Z,31.20
2019-05-22T07:27:26.685Z,30.80
2019-05-22T07:29:56.475Z,32.60
2019-05-22T07:32:25.281Z,32.00
2019-05-22T07:34:54.114Z,32.40
2019-05-22T07:37:24.068Z,31.40
2019-05-22T07:39:53.701Z,30.30
2019-05-22T07:42:22.957Z,30.10
2019-05-22T07:44:51.801Z,29.80
2019-05-22T07:47:24.308Z,29.40
2019-05-22T07:49:53.237Z,29.60
2019-05-22T07:52:23.083Z,29.40
2019-05-22T07:54:54.317Z,28.80
2019-05-22T07:57:24.789Z,27.00
2019-05-22T07:59:53.606Z,27.00
2019-05-22T08:02:25.236Z,28.90
2019-05-22T08:04:54.609Z,28.70
2019-05-22T08:07:25.194Z,28.20
2019-05-22T08:09:54.119Z,28.50
2019-05-22T08:12:24.839Z,30.00
2019-05-22T08:14:55.020Z,29.10
2019-05-22T08:17:24.275Z,28.80
2019-05-22T08:19:53.146Z,28.30
2019-05-22T08:22:22.357Z,27.80
2019-05-22T08:24:51.542Z,28.60
2019-05-22T08:27:20.646Z,28.80
2019-05-22T08:29:50.099Z,27.90
2019-05-22T08:32:20.026Z,27.70
2019-05-22T08:34:49.195Z,27.60
2019-05-22T08:37:20.195Z,28.20
2019-05-22T08:39:49.754Z,28.30
2019-05-22T08:42:19.708Z,27.40
2019-05-22T08:44:48.835Z,26.50
2019-05-22T08:47:18.609Z,26.60
2019-05-22T08:49:48.146Z,25.40
2019-05-22T08:52:23.777Z,25.90
2019-05-22T08:54:51.717Z,25.40
2019-05-22T08:57:21.187Z,26.30
2019-05-22T08:59:49.981Z,25.70
2019-05-22T09:02:20.450Z,24.90
2019-05-22T09:04:49.385Z,24.80
2019-05-22T09:07:19.412Z,24.70
2019-05-22T09:09:48.488Z,24.80
2019-05-22T09:12:17.333Z,26.50
2019-05-22T09:14:46.234Z,27.10
2019-05-22T09:17:15.387Z,27.40
2019-05-22T09:19:45.029Z,27.80
2019-05-22T09:22:14.201Z,29.00
2019-05-22T09:24:43.369Z,29.30
2019-05-22T09:27:12.620Z,29.80
2019-05-22T09:29:41.504Z,31.30
2019-05-22T09:32:10.411Z,31.00
2019-05-22T09:34:39.698Z,30.50
2019-05-22T09:37:09.042Z,29.20
2019-05-22T09:39:37.939Z,29.50
2019-05-22T09:42:06.822Z,26.90
2019-05-22T09:44:35.826Z,28.30
2019-05-22T09:47:05.390Z,26.30
2019-05-22T09:49:34.568Z,24.20
2019-05-22T09:52:05.405Z,24.10
2019-05-22T09:54:35.523Z,22.10
2019-05-22T09:57:05.319Z,22.00
2019-05-22T09:59:34.254Z,22.50
2019-05-22T10:02:05.589Z,21.80
2019-05-22T10:04:34.789Z,21.80
2019-05-22T10:07:03.645Z,22.20
2019-05-22T10:09:32.541Z,22.60
2019-05-22T10:12:02.980Z,21.70
2019-05-22T10:14:32.049Z,21.80
2019-05-22T10:17:01.293Z,21.40
2019-05-22T10:19:30.736Z,21.10
2019-05-22T10:21:59.591Z,21.10
2019-05-22T10:24:28.709Z,20.60
2019-05-22T10:26:57.759Z,21.10
2019-05-22T10:29:27.387Z,20.20
2019-05-22T10:31:56.327Z,20.20
2019-05-22T10:34:25.892Z,19.40
2019-05-22T10:36:54.808Z,19.00
2019-05-22T10:39:24.912Z,19.40
2019-05-22T10:41:53.891Z,19.90
2019-05-22T10:44:24.304Z,20.20
2019-05-22T10:46:53.143Z,20.30
2019-05-22T10:49:22.508Z,20.30
2019-05-22T10:51:51.613Z,19.90
2019-05-22T10:54:20.559Z,19.60
2019-05-22T10:56:49.336Z,19.80
2019-05-22T10:59:18.149Z,20.40
2019-05-22T11:01:47.182Z,19.50
2019-05-22T11:04:19.545Z,18.60
2019-05-22T11:06:49.021Z,18.40
2019-05-22T11:09:18.169Z,19.40
2019-05-22T11:11:46.934Z,18.20
2019-05-22T11:14:16.202Z,17.40
2019-05-22T11:16:49.930Z,17.50
2019-05-22T11:19:18.907Z,17.00
2019-05-22T11:21:47.789Z,17.50
2019-05-22T11:24:16.704Z,18.50
2019-05-22T11:26:47.073Z,18.30
2019-05-22T11:29:16.815Z,20.00
2019-05-22T11:31:45.717Z,20.20
2019-05-22T11:34:14.788Z,20.30
2019-05-22T11:36:43.713Z,21.80
2019-05-22T11:39:14.815Z,22.70
2019-05-22T11:41:43.906Z,24.70
2019-05-22T11:44:13.254Z,23.20
2019-05-22T11:46:42.230Z,22.70
2019-05-22T11:49:11.396Z,23.60
2019-05-22T11:51:40.209Z,25.10
2019-05-22T11:54:10.051Z,22.50
2019-05-22T11:56:39.132Z,21.80
2019-05-22T11:59:08.004Z,21.40
2019-05-22T12:01:36.827Z,20.00
2019-05-22T12:04:09.261Z,19.60
2019-05-22T12:06:38.711Z,19.00
2019-05-22T12:09:10.093Z,17.40
2019-05-22T12:11:43.014Z,18.10
2019-05-22T12:14:10.536Z,19.40
2019-05-22T12:16:41.226Z,18.30
2019-05-22T12:19:10.558Z,18.80
2019-05-22T12:21:39.937Z,18.90
2019-05-22T12:24:26.000Z,17.70
2019-05-22T12:26:40.193Z,18.80
2019-05-22T12:29:09.156Z,17.60
2019-05-22T12:31:38.705Z,18.80
2019-05-22T12:34:07.977Z,19.00
2019-05-22T12:36:36.857Z,18.40
2019-05-22T12:39:10.740Z,17.80
2019-05-22T12:41:40.983Z,17.90
2019-05-22T12:44:11.256Z,18.00
2019-05-22T12:46:40.825Z,20.80
2019-05-22T12:49:12.345Z,21.90
2019-05-22T12:51:41.576Z,22.30
2019-05-22T12:54:10.439Z,20.90
2019-05-22T12:56:39.284Z,21.50
2019-05-22T12:59:08.675Z,20.80
2019-05-22T13:01:38.825Z,20.40
2019-05-22T13:04:09.102Z,21.90
2019-05-22T13:06:39.394Z,21.50
2019-05-22T13:09:10.847Z,22.50
2019-05-22T13:11:40.497Z,23.00
2019-05-22T13:14:09.396Z,23.80
2019-05-22T13:16:39.153Z,25.10
2019-05-22T13:19:08.525Z,23.90
2019-05-22T13:21:38.151Z,23.70
2019-05-22T13:24:09.983Z,23.00
2019-05-22T13:26:39.612Z,22.50
2019-05-22T13:29:08.910Z,21.00
2019-05-22T13:31:38.438Z,21.70
2019-05-22T13:34:07.372Z,21.60
2019-05-22T13:36:36.327Z,21.40
2019-05-22T13:39:08.550Z,20.90
2019-05-22T13:41:37.815Z,21.20
2019-05-22T13:44:06.604Z,21.10
2019-05-22T13:46:36.178Z,21.20
2019-05-22T13:49:05.539Z,20.90
2019-05-22T13:51:34.511Z,20.50
2019-05-22T13:54:04.240Z,20.60
2019-05-22T13:56:33.856Z,21.70
2019-05-22T13:59:03.343Z,21.30
2019-05-22T14:01:32.216Z,21.90
2019-05-22T14:04:01.122Z,22.50
2019-05-22T14:06:29.953Z,22.70
2019-05-22T14:09:00.679Z,23.80
2019-05-22T14:11:29.551Z,24.10
2019-05-22T14:13:59.003Z,26.10
2019-05-22T14:16:28.003Z,25.50
2019-05-22T14:18:56.853Z,25.80
2019-05-22T14:21:25.829Z,26.60
2019-05-22T14:23:54.681Z,27.10
2019-05-22T14:26:23.399Z,26.60
2019-05-22T14:28:52.491Z,26.60
2019-05-22T14:31:21.360Z,27.00
2019-05-22T14:33:50.632Z,27.70
2019-05-22T14:36:20.754Z,26.50
2019-05-22T14:38:49.654Z,27.20
2019-05-22T14:41:18.407Z,27.50
2019-05-22T14:43:47.380Z,27.60
2019-05-22T14:46:16.134Z,27.20
2019-05-22T14:48:45.026Z,28.20
2019-05-22T14:51:14.782Z,27.70
2019-05-22T14:53:44.209Z,28.70
2019-05-22T14:56:13.372Z,29.20
2019-05-22T14:58:43.808Z,28.90
2019-05-22T15:01:13.003Z,28.50
2019-05-22T15:03:42.366Z,29.20
2019-05-22T15:06:11.553Z,29.40
2019-05-22T15:08:40.544Z,29.40
2019-05-22T15:11:10.364Z,29.20
2019-05-22T15:13:39.939Z,29.50
2019-05-22T15:16:08.819Z,30.00
2019-05-22T15:18:37.689Z,30.00
2019-05-22T15:21:07.852Z,30.00
2019-05-22T15:23:37.383Z,29.90
2019-05-22T15:26:06.278Z,28.20
2019-05-22T15:28:35.550Z,28.50
2019-05-22T15:31:05.017Z,29.10
2019-05-22T15:33:35.048Z,28.90
2019-05-22T15:36:06.861Z,28.20
2019-05-22T15:38:38.871Z,27.80
2019-05-22T15:41:09.695Z,28.30
2019-05-22T15:43:41.105Z,28.20
2019-05-22T15:46:12.523Z,28.10
2019-05-22T15:48:43.107Z,29.20
2019-05-22T15:51:16.746Z,28.50
2019-05-22T15:53:47.110Z,29.00
2019-05-22T15:56:15.972Z,30.00
2019-05-22T15:58:49.028Z,30.00
2019-05-22T16:01:21.921Z,29.80
2019-05-22T16:03:53.611Z,29.90
2019-05-22T16:06:24.349Z,28.90
2019-05-22T16:08:55.960Z,29.00
2019-05-22T16:11:26.589Z,29.60
2019-05-22T16:13:58.153Z,29.80
2019-05-22T16:16:28.682Z,29.60
2019-05-22T16:19:00.792Z,29.70
2019-05-22T16:21:31.236Z,28.90
2019-05-22T16:24:00.536Z,29.40
2019-05-22T16:26:30.040Z,28.60
2019-05-22T16:29:00.965Z,28.70
2019-05-22T16:31:32.244Z,28.80
2019-05-22T16:34:01.316Z,29.40
2019-05-22T16:36:31.107Z,29.40
2019-05-22T16:39:00.732Z,29.00
2019-05-22T16:41:30.213Z,30.00
2019-05-22T16:43:59.636Z,30.00
2019-05-22T16:46:29.364Z,29.70
2019-05-22T16:48:58.902Z,28.60
2019-05-22T16:51:29.019Z,29.90
2019-05-22T16:54:04.673Z,29.20
2019-05-22T16:56:35.450Z,29.40
2019-05-22T16:59:06.033Z,29.00
2019-05-22T17:01:56.282Z,30.50
2019-05-22T17:04:07.693Z,30.00
2019-05-22T17:06:37.544Z,31.10
2019-05-22T17:09:09.710Z,31.40
2019-05-22T17:11:39.480Z,30.70
2019-05-22T17:14:11.417Z,30.60
2019-05-22T17:16:41.483Z,30.80
2019-05-22T17:19:25.677Z,31.70
2019-05-22T17:21:42.248Z,31.90
2019-05-22T17:24:13.183Z,32.00
2019-05-22T17:26:42.506Z,31.10
2019-05-22T17:29:13.130Z,30.80
2019-05-22T17:31:43.888Z,31.40
2019-05-22T17:34:31.987Z,31.30
2019-05-22T17:37:02.470Z,32.80
2019-05-22T17:39:34.723Z,31.50
2019-05-22T17:42:04.417Z,31.10
2019-05-22T17:44:36.456Z,31.40
2019-05-22T17:47:06.849Z,32.70
2019-05-22T17:49:35.904Z,32.10
2019-05-22T17:52:05.644Z,31.70
2019-05-22T17:54:34.515Z,31.70
2019-05-22T17:57:06.748Z,31.80
2019-05-22T17:59:35.915Z,32.40
2019-05-22T18:02:06.365Z,31.70
2019-05-22T18:04:35.256Z,32.60
2019-05-22T18:07:05.792Z,33.30
2019-05-22T18:09:35.324Z,33.10
2019-05-22T18:12:05.723Z,32.00
2019-05-22T18:14:36.204Z,33.10
2019-05-22T18:17:05.951Z,33.80
2019-05-22T18:19:36.031Z,32.90
2019-05-22T18:22:06.480Z,32.50
2019-05-22T18:24:35.333Z,32.90
2019-05-22T18:27:04.455Z,33.30
2019-05-22T18:29:33.535Z,32.80
2019-05-22T18:32:02.647Z,32.90
2019-05-22T18:34:34.672Z,32.90
2019-05-22T18:37:03.547Z,33.10
2019-05-22T18:39:33.285Z,33.10
2019-05-22T18:42:02.192Z,33.60
2019-05-22T18:44:30.979Z,33.30
2019-05-22T18:47:00.085Z,33.00
2019-05-22T18:49:29.006Z,33.10
2019-05-22T18:51:57.745Z,33.40
2019-05-22T18:54:26.620Z,33.80
2019-05-22T18:56:55.527Z,33.40
2019-05-22T18:59:24.412Z,33.70
2019-05-22T19:01:53.547Z,34.10
2019-05-22T19:04:22.540Z,34.60
2019-05-22T19:06:51.586Z,35.20
2019-05-22T19:09:20.779Z,34.70
2019-05-22T19:11:49.645Z,35.50
2019-05-22T19:14:19.034Z,35.80
2019-05-22T19:16:47.966Z,35.70
2019-05-22T19:19:20.117Z,35.60
2019-05-22T19:21:49.391Z,36.10
2019-05-22T19:24:18.548Z,35.90
2019-05-22T19:26:47.871Z,36.30
2019-05-22T19:29:16.774Z,35.80
2019-05-22T19:31:45.560Z,35.90
2019-05-22T19:34:14.403Z,35.50
2019-05-22T19:36:43.345Z,35.70
2019-05-22T19:39:22.572Z,36.90
2019-05-22T19:42:01.933Z,36.30
2019-05-22T19:44:22.715Z,36.60
2019-05-22T19:46:51.960Z,36.40
2019-05-22T19:49:20.881Z,36.70
2019-05-22T19:51:51.375Z,36.40
2019-05-22T19:54:20.234Z,36.50
2019-05-22T19:56:49.178Z,37.20
2019-05-22T19:59:19.056Z,36.10
2019-05-22T20:01:48.033Z,36.10
2019-05-22T20:04:16.960Z,36.40
2019-05-22T20:06:45.786Z,37.20
2019-05-22T20:09:16.296Z,37.20
2019-05-22T20:11:45.703Z,37.90
2019-05-22T20:14:14.970Z,38.00
2019-05-22T20:16:46.634Z,38.40
2019-05-22T20:19:15.514Z,38.50
2019-05-22T20:21:44.901Z,38.80
2019-05-22T20:24:14.161Z,39.10
2019-05-22T20:26:43.181Z,38.80
2019-05-22T20:29:14.559Z,38.80
2019-05-22T20:31:43.429Z,38.80
2019-05-22T20:34:14.196Z,38.80
2019-05-22T20:36:43.272Z,38.90
2019-05-22T20:39:13.825Z,39.20
2019-05-22T20:41:43.076Z,39.20
2019-05-22T20:44:13.946Z,39.10
2019-05-22T20:46:44.158Z,39.30
2019-05-22T20:49:14.391Z,39.10
2019-05-22T20:51:44.059Z,39.40
2019-05-22T20:54:13.035Z,39.30
2019-05-22T20:56:44.567Z,39.30
2019-05-22T20:59:14.213Z,39.30
2019-05-22T21:01:42.978Z,39.40
2019-05-22T21:04:13.855Z,38.90
2019-05-22T21:06:48.634Z,39.20
2019-05-22T21:09:20.645Z,39.00
2019-05-22T21:11:53.655Z,39.10
2019-05-22T21:14:22.956Z,38.90
2019-05-22T21:16:53.589Z,39.20
2019-05-22T21:19:23.847Z,39.10
2019-05-22T21:21:58.072Z,39.20
2019-05-22T21:24:27.944Z,39.20
2019-05-22T21:26:57.274Z,39.10
2019-05-22T21:29:27.758Z,39.80
2019-05-22T21:31:56.590Z,39.20
2019-05-22T21:34:26.469Z,39.30
2019-05-22T21:37:05.936Z,39.60
2019-05-22T21:39:35.413Z,39.40
2019-05-22T21:42:04.987Z,39.80
2019-05-22T21:44:34.695Z,40.00
2019-05-22T21:47:05.365Z,39.50
2019-05-22T21:49:38.316Z,39.40
2019-05-22T21:52:06.905Z,39.70
2019-05-22T21:54:35.736Z,39.80
2019-05-22T21:57:05.518Z,40.20
2019-05-22T21:59:34.519Z,41.10
2019-05-22T22:02:05.246Z,41.00
2019-05-22T22:04:35.129Z,41.10
2019-05-22T22:07:05.305Z,41.40
2019-05-22T22:09:34.113Z,41.40
2019-05-22T22:12:02.961Z,41.40
2019-05-22T22:14:32.432Z,41.30
2019-05-22T22:17:02.606Z,41.50
2019-05-22T22:19:32.406Z,42.00
2019-05-22T22:22:02.781Z,42.10
2019-05-22T22:24:32.273Z,42.20
2019-05-22T22:27:01.370Z,42.30
2019-05-22T22:29:30.218Z,42.40
2019-05-22T22:31:59.239Z,42.40
2019-05-22T22:34:34.232Z,43.00
2019-05-22T22:37:04.705Z,43.10
2019-05-22T22:39:34.794Z,43.90
2019-05-22T22:42:05.775Z,43.80
2019-05-22T22:44:37.077Z,43.70
2019-05-22T22:47:11.247Z,45.70
2019-05-22T22:49:40.542Z,46.00
2019-05-22T22:52:12.284Z,45.70
2019-05-22T22:54:42.144Z,45.90
2019-05-22T22:57:11.415Z,46.70
2019-05-22T22:59:40.415Z,46.10
2019-05-22T23:02:12.774Z,45.20
2019-05-22T23:04:43.002Z,45.20
2019-05-22T23:07:12.004Z,44.90
2019-05-22T23:09:43.044Z,45.30
2019-05-22T23:12:12.822Z,45.30
2019-05-22T23:14:44.745Z,45.80
2019-05-22T23:17:13.739Z,46.50
2019-05-22T23:19:43.218Z,46.60
2019-05-22T23:22:12.437Z,47.00
2019-05-22T23:24:43.738Z,46.40
2019-05-22T23:27:13.773Z,47.40
2019-05-22T23:29:43.031Z,46.90
2019-05-22T23:32:12.559Z,46.50
2019-05-22T23:34:41.731Z,46.10
2019-05-22T23:37:13.277Z,45.70
2019-05-22T23:39:42.456Z,45.70
2019-05-22T23:42:14.354Z,45.80
2019-05-22T23:44:44.304Z,46.20
2019-05-22T23:47:14.244Z,47.00
2019-05-22T23:49:43.757Z,46.50
2019-05-22T23:52:14.156Z,46.80
2019-05-22T23:54:44.730Z,46.90
2019-05-22T23:57:15.223Z,47.40
2019-05-22T23:59:46.376Z,47.70
